sensor_id;sensor_type;location;lat;lon;timestamp;P1;durP1;ratioP1;P2;durP2;ratioP2
16820;SDS011;8527;49.740;6.604;2022-08-25T00:05:05;5.97;;;3.60;;
16820;SDS011;8527;49.740;6.604;2022-08-25T00:10:12;5.60;;;3.80;;
16820;SDS011;8527;49.740;6.604;2022-08-25T00:15:16;6.00;;;3.90;;
16820;SDS011;8527;49.740;6.604;2022-08-25T00:20:17;5.90;;;4.05;;
16820;SDS011;8527;49.740;6.604;2022-08-25T00:25:22;6.65;;;3.60;;
16820;SDS011;8527;49.740;6.604;2022-08-25T00:30:21;8.55;;;4.20;;
16820;SDS011;8527;49.740;6.604;2022-08-25T00:35:24;7.68;;;4.00;;
16820;SDS011;8527;49.740;6.604;2022-08-25T00:40:26;5.72;;;4.15;;
16820;SDS011;8527;49.740;6.604;2022-08-25T00:45:25;9.30;;;4.15;;
16820;SDS011;8527;49.740;6.604;2022-08-25T00:50:25;5.43;;;4.10;;
16820;SDS011;8527;49.740;6.604;2022-08-25T00:55:29;5.90;;;4.07;;
16820;SDS011;8527;49.740;6.604;2022-08-25T01:00:35;5.20;;;3.85;;
16820;SDS011;8527;49.740;6.604;2022-08-25T01:05:36;5.32;;;3.67;;
16820;SDS011;8527;49.740;6.604;2022-08-25T01:10:43;7.25;;;4.28;;
16820;SDS011;8527;49.740;6.604;2022-08-25T01:15:43;7.47;;;4.10;;
16820;SDS011;8527;49.740;6.604;2022-08-25T01:25:52;5.97;;;4.00;;
16820;SDS011;8527;49.740;6.604;2022-08-25T01:30:57;8.90;;;4.32;;
16820;SDS011;8527;49.740;6.604;2022-08-25T01:35:58;7.05;;;4.63;;
16820;SDS011;8527;49.740;6.604;2022-08-25T01:40:57;8.35;;;4.50;;
16820;SDS011;8527;49.740;6.604;2022-08-25T01:45:55;8.90;;;4.40;;
16820;SDS011;8527;49.740;6.604;2022-08-25T01:50:54;5.20;;;4.15;;
16820;SDS011;8527;49.740;6.604;2022-08-25T01:56:01;9.68;;;4.57;;
16820;SDS011;8527;49.740;6.604;2022-08-25T02:01:06;6.35;;;4.32;;
16820;SDS011;8527;49.740;6.604;2022-08-25T02:06:07;6.68;;;4.57;;
16820;SDS011;8527;49.740;6.604;2022-08-25T02:11:13;7.88;;;4.93;;
16820;SDS011;8527;49.740;6.604;2022-08-25T02:16:13;8.55;;;5.32;;
16820;SDS011;8527;49.740;6.604;2022-08-25T02:21:19;7.60;;;4.97;;
16820;SDS011;8527;49.740;6.604;2022-08-25T02:26:21;6.32;;;4.32;;
16820;SDS011;8527;49.740;6.604;2022-08-25T02:31:21;10.10;;;4.32;;
16820;SDS011;8527;49.740;6.604;2022-08-25T02:36:21;7.53;;;4.32;;
16820;SDS011;8527;49.740;6.604;2022-08-25T02:41:23;6.47;;;5.07;;
16820;SDS011;8527;49.740;6.604;2022-08-25T02:51:32;7.15;;;4.75;;
16820;SDS011;8527;49.740;6.604;2022-08-25T02:56:34;8.60;;;4.80;;
16820;SDS011;8527;49.740;6.604;2022-08-25T03:01:36;8.60;;;4.47;;
16820;SDS011;8527;49.740;6.604;2022-08-25T03:06:35;14.30;;;5.38;;
16820;SDS011;8527;49.740;6.604;2022-08-25T03:11:36;10.00;;;4.40;;
16820;SDS011;8527;49.740;6.604;2022-08-25T03:16:35;7.72;;;4.70;;
16820;SDS011;8527;49.740;6.604;2022-08-25T03:21:38;7.50;;;4.60;;
16820;SDS011;8527;49.740;6.604;2022-08-25T03:26:39;5.85;;;4.38;;
16820;SDS011;8527;49.740;6.604;2022-08-25T03:31:50;10.23;;;4.65;;
16820;SDS011;8527;49.740;6.604;2022-08-25T03:36:56;8.80;;;5.18;;
16820;SDS011;8527;49.740;6.604;2022-08-25T03:42:06;8.52;;;4.70;;
16820;SDS011;8527;49.740;6.604;2022-08-25T03:47:06;9.07;;;4.90;;
16820;SDS011;8527;49.740;6.604;2022-08-25T03:52:10;11.90;;;5.00;;
16820;SDS011;8527;49.740;6.604;2022-08-25T03:57:11;6.35;;;4.40;;
16820;SDS011;8527;49.740;6.604;2022-08-25T04:02:19;11.80;;;5.10;;
16820;SDS011;8527;49.740;6.604;2022-08-25T04:07:20;8.18;;;5.10;;
16820;SDS011;8527;49.740;6.604;2022-08-25T04:12:21;6.97;;;4.70;;
16820;SDS011;8527;49.740;6.604;2022-08-25T04:17:23;7.40;;;5.50;;
16820;SDS011;8527;49.740;6.604;2022-08-25T04:22:22;13.35;;;5.40;;
16820;SDS011;8527;49.740;6.604;2022-08-25T04:27:23;10.13;;;5.15;;
16820;SDS011;8527;49.740;6.604;2022-08-25T04:32:22;7.35;;;5.22;;
16820;SDS011;8527;49.740;6.604;2022-08-25T04:37:27;9.18;;;5.05;;
16820;SDS011;8527;49.740;6.604;2022-08-25T04:42:30;7.55;;;5.28;;
16820;SDS011;8527;49.740;6.604;2022-08-25T04:47:28;8.57;;;5.93;;
16820;SDS011;8527;49.740;6.604;2022-08-25T04:52:38;6.82;;;5.13;;
16820;SDS011;8527;49.740;6.604;2022-08-25T04:57:42;8.53;;;5.23;;
16820;SDS011;8527;49.740;6.604;2022-08-25T05:02:41;8.93;;;5.20;;
16820;SDS011;8527;49.740;6.604;2022-08-25T05:07:42;7.15;;;5.13;;
16820;SDS011;8527;49.740;6.604;2022-08-25T05:12:48;8.77;;;5.53;;
16820;SDS011;8527;49.740;6.604;2022-08-25T05:17:47;7.70;;;5.82;;
16820;SDS011;8527;49.740;6.604;2022-08-25T05:22:45;7.63;;;5.32;;
16820;SDS011;8527;49.740;6.604;2022-08-25T05:27:49;11.13;;;5.00;;
16820;SDS011;8527;49.740;6.604;2022-08-25T05:32:47;10.85;;;6.50;;
16820;SDS011;8527;49.740;6.604;2022-08-25T05:37:46;13.73;;;6.18;;
16820;SDS011;8527;49.740;6.604;2022-08-25T05:42:45;11.05;;;6.50;;
16820;SDS011;8527;49.740;6.604;2022-08-25T05:47:48;9.88;;;6.30;;
16820;SDS011;8527;49.740;6.604;2022-08-25T05:52:47;9.75;;;6.65;;
16820;SDS011;8527;49.740;6.604;2022-08-25T05:57:45;13.63;;;6.45;;
16820;SDS011;8527;49.740;6.604;2022-08-25T06:02:47;15.00;;;5.80;;
16820;SDS011;8527;49.740;6.604;2022-08-25T06:07:46;19.90;;;6.57;;
16820;SDS011;8527;49.740;6.604;2022-08-25T06:12:52;13.63;;;6.63;;
16820;SDS011;8527;49.740;6.604;2022-08-25T06:17:54;11.23;;;6.38;;
16820;SDS011;8527;49.740;6.604;2022-08-25T06:23:03;12.90;;;6.00;;
16820;SDS011;8527;49.740;6.604;2022-08-25T06:28:02;19.58;;;7.35;;
16820;SDS011;8527;49.740;6.604;2022-08-25T06:33:03;12.23;;;5.78;;
16820;SDS011;8527;49.740;6.604;2022-08-25T06:38:02;13.43;;;5.72;;
16820;SDS011;8527;49.740;6.604;2022-08-25T06:43:00;17.27;;;6.63;;
16820;SDS011;8527;49.740;6.604;2022-08-25T06:48:04;11.30;;;6.15;;
16820;SDS011;8527;49.740;6.604;2022-08-25T06:53:03;16.45;;;6.30;;
16820;SDS011;8527;49.740;6.604;2022-08-25T06:58:02;9.57;;;5.60;;
16820;SDS011;8527;49.740;6.604;2022-08-25T07:03:06;10.80;;;5.82;;
16820;SDS011;8527;49.740;6.604;2022-08-25T07:08:05;11.32;;;5.53;;
16820;SDS011;8527;49.740;6.604;2022-08-25T07:13:05;15.50;;;5.93;;
16820;SDS011;8527;49.740;6.604;2022-08-25T07:18:04;12.27;;;5.70;;
16820;SDS011;8527;49.740;6.604;2022-08-25T07:23:11;13.65;;;6.15;;
16820;SDS011;8527;49.740;6.604;2022-08-25T07:28:10;15.43;;;5.80;;
16820;SDS011;8527;49.740;6.604;2022-08-25T07:33:14;13.48;;;6.00;;
16820;SDS011;8527;49.740;6.604;2022-08-25T07:38:13;17.73;;;5.88;;
16820;SDS011;8527;49.740;6.604;2022-08-25T07:43:11;9.82;;;5.60;;
16820;SDS011;8527;49.740;6.604;2022-08-25T07:48:21;16.02;;;6.10;;
16820;SDS011;8527;49.740;6.604;2022-08-25T07:53:21;22.90;;;5.70;;
16820;SDS011;8527;49.740;6.604;2022-08-25T07:58:20;14.18;;;5.68;;
16820;SDS011;8527;49.740;6.604;2022-08-25T08:03:24;17.63;;;6.03;;
16820;SDS011;8527;49.740;6.604;2022-08-25T08:08:28;12.98;;;5.28;;
16820;SDS011;8527;49.740;6.604;2022-08-25T08:13:30;18.08;;;5.90;;
16820;SDS011;8527;49.740;6.604;2022-08-25T08:18:31;16.88;;;5.30;;
16820;SDS011;8527;49.740;6.604;2022-08-25T08:23:30;18.30;;;5.28;;
16820;SDS011;8527;49.740;6.604;2022-08-25T08:28:28;11.18;;;4.70;;
16820;SDS011;8527;49.740;6.604;2022-08-25T08:33:27;12.63;;;5.15;;
16820;SDS011;8527;49.740;6.604;2022-08-25T08:38:28;10.50;;;5.07;;
16820;SDS011;8527;49.740;6.604;2022-08-25T08:43:29;12.95;;;4.90;;
16820;SDS011;8527;49.740;6.604;2022-08-25T08:48:39;15.65;;;4.80;;
16820;SDS011;8527;49.740;6.604;2022-08-25T08:53:48;10.82;;;4.75;;
16820;SDS011;8527;49.740;6.604;2022-08-25T08:58:58;9.07;;;4.70;;
16820;SDS011;8527;49.740;6.604;2022-08-25T09:04:08;9.23;;;4.65;;
16820;SDS011;8527;49.740;6.604;2022-08-25T09:09:15;10.32;;;4.93;;
16820;SDS011;8527;49.740;6.604;2022-08-25T09:14:24;8.98;;;4.93;;
16820;SDS011;8527;49.740;6.604;2022-08-25T09:19:41;14.48;;;4.80;;
16820;SDS011;8527;49.740;6.604;2022-08-25T09:25:04;11.50;;;4.90;;
16820;SDS011;8527;49.740;6.604;2022-08-25T09:30:13;11.52;;;4.82;;
16820;SDS011;8527;49.740;6.604;2022-08-25T09:35:14;12.20;;;5.03;;
16820;SDS011;8527;49.740;6.604;2022-08-25T09:40:17;13.93;;;5.00;;
16820;SDS011;8527;49.740;6.604;2022-08-25T09:45:18;9.48;;;5.00;;
16820;SDS011;8527;49.740;6.604;2022-08-25T09:50:40;18.45;;;5.40;;
16820;SDS011;8527;49.740;6.604;2022-08-25T09:55:41;8.07;;;4.88;;
16820;SDS011;8527;49.740;6.604;2022-08-25T10:00:42;10.95;;;4.82;;
16820;SDS011;8527;49.740;6.604;2022-08-25T10:05:48;8.20;;;5.35;;
16820;SDS011;8527;49.740;6.604;2022-08-25T10:10:58;9.50;;;5.22;;
16820;SDS011;8527;49.740;6.604;2022-08-25T10:16:02;7.72;;;5.22;;
16820;SDS011;8527;49.740;6.604;2022-08-25T10:21:04;9.77;;;4.85;;
16820;SDS011;8527;49.740;6.604;2022-08-25T10:26:12;8.18;;;4.82;;
16820;SDS011;8527;49.740;6.604;2022-08-25T10:31:21;11.17;;;4.80;;
16820;SDS011;8527;49.740;6.604;2022-08-25T10:36:25;10.15;;;5.25;;
16820;SDS011;8527;49.740;6.604;2022-08-25T10:41:37;11.75;;;4.82;;
16820;SDS011;8527;49.740;6.604;2022-08-25T10:46:48;14.90;;;4.90;;
16820;SDS011;8527;49.740;6.604;2022-08-25T10:51:53;6.75;;;4.97;;
16820;SDS011;8527;49.740;6.604;2022-08-25T10:57:03;11.65;;;5.30;;
16820;SDS011;8527;49.740;6.604;2022-08-25T11:02:20;8.13;;;5.38;;
16820;SDS011;8527;49.740;6.604;2022-08-25T11:07:41;7.55;;;4.93;;
16820;SDS011;8527;49.740;6.604;2022-08-25T11:12:45;9.80;;;4.90;;
16820;SDS011;8527;49.740;6.604;2022-08-25T11:17:50;8.65;;;4.43;;
16820;SDS011;8527;49.740;6.604;2022-08-25T11:22:56;7.55;;;4.60;;
16820;SDS011;8527;49.740;6.604;2022-08-25T11:28:08;9.43;;;4.55;;
16820;SDS011;8527;49.740;6.604;2022-08-25T11:33:11;7.30;;;3.92;;
16820;SDS011;8527;49.740;6.604;2022-08-25T11:38:17;10.00;;;4.40;;
16820;SDS011;8527;49.740;6.604;2022-08-25T11:43:36;7.97;;;4.38;;
16820;SDS011;8527;49.740;6.604;2022-08-25T11:48:52;6.78;;;4.10;;
16820;SDS011;8527;49.740;6.604;2022-08-25T12:05:07;10.20;;;4.00;;
16820;SDS011;8527;49.740;6.604;2022-08-25T12:15:23;5.43;;;4.03;;
16820;SDS011;8527;49.740;6.604;2022-08-25T12:26:01;7.57;;;4.00;;
16820;SDS011;8527;49.740;6.604;2022-08-25T12:31:08;7.10;;;3.53;;
16820;SDS011;8527;49.740;6.604;2022-08-25T12:36:25;7.00;;;3.75;;
16820;SDS011;8527;49.740;6.604;2022-08-25T12:41:29;6.40;;;4.00;;
16820;SDS011;8527;49.740;6.604;2022-08-25T12:46:50;6.13;;;3.50;;
16820;SDS011;8527;49.740;6.604;2022-08-25T12:57:06;5.32;;;3.75;;
16820;SDS011;8527;49.740;6.604;2022-08-25T13:02:45;6.68;;;4.30;;
16820;SDS011;8527;49.740;6.604;2022-08-25T13:07:57;9.83;;;4.43;;
16820;SDS011;8527;49.740;6.604;2022-08-25T13:13:30;6.72;;;4.20;;
16820;SDS011;8527;49.740;6.604;2022-08-25T13:18:43;10.57;;;4.20;;
16820;SDS011;8527;49.740;6.604;2022-08-25T13:23:43;9.75;;;3.90;;
16820;SDS011;8527;49.740;6.604;2022-08-25T13:28:48;8.95;;;3.53;;
16820;SDS011;8527;49.740;6.604;2022-08-25T13:33:54;6.15;;;3.67;;
16820;SDS011;8527;49.740;6.604;2022-08-25T13:39:08;4.90;;;3.55;;
16820;SDS011;8527;49.740;6.604;2022-08-25T13:44:11;4.55;;;4.07;;
16820;SDS011;8527;49.740;6.604;2022-08-25T13:49:10;7.10;;;3.90;;
16820;SDS011;8527;49.740;6.604;2022-08-25T13:54:19;6.70;;;4.13;;
16820;SDS011;8527;49.740;6.604;2022-08-25T13:59:29;6.70;;;4.05;;
16820;SDS011;8527;49.740;6.604;2022-08-25T14:04:43;7.18;;;3.50;;
16820;SDS011;8527;49.740;6.604;2022-08-25T14:09:59;4.22;;;3.58;;
16820;SDS011;8527;49.740;6.604;2022-08-25T14:15:07;7.82;;;3.80;;
16820;SDS011;8527;49.740;6.604;2022-08-25T14:20:19;6.63;;;3.53;;
16820;SDS011;8527;49.740;6.604;2022-08-25T14:25:22;5.35;;;3.30;;
16820;SDS011;8527;49.740;6.604;2022-08-25T14:30:31;9.38;;;3.42;;
16820;SDS011;8527;49.740;6.604;2022-08-25T14:35:36;5.55;;;3.55;;
16820;SDS011;8527;49.740;6.604;2022-08-25T14:40:35;6.45;;;3.47;;
16820;SDS011;8527;49.740;6.604;2022-08-25T14:45:45;5.07;;;3.35;;
16820;SDS011;8527;49.740;6.604;2022-08-25T14:50:44;7.15;;;3.55;;
16820;SDS011;8527;49.740;6.604;2022-08-25T14:55:46;4.80;;;3.50;;
16820;SDS011;8527;49.740;6.604;2022-08-25T15:00:50;8.00;;;3.63;;
16820;SDS011;8527;49.740;6.604;2022-08-25T15:05:49;5.75;;;3.63;;
16820;SDS011;8527;49.740;6.604;2022-08-25T15:10:54;9.15;;;3.60;;
16820;SDS011;8527;49.740;6.604;2022-08-25T15:15:57;11.57;;;4.10;;
16820;SDS011;8527;49.740;6.604;2022-08-25T15:20:56;6.20;;;3.83;;
16820;SDS011;8527;49.740;6.604;2022-08-25T15:25:54;5.75;;;3.90;;
16820;SDS011;8527;49.740;6.604;2022-08-25T15:30:53;9.00;;;4.55;;
16820;SDS011;8527;49.740;6.604;2022-08-25T15:35:56;5.47;;;3.95;;
16820;SDS011;8527;49.740;6.604;2022-08-25T15:40:54;6.07;;;3.80;;
16820;SDS011;8527;49.740;6.604;2022-08-25T15:45:53;9.52;;;4.07;;
16820;SDS011;8527;49.740;6.604;2022-08-25T15:50:57;8.85;;;4.47;;
16820;SDS011;8527;49.740;6.604;2022-08-25T15:55:59;9.73;;;4.30;;
16820;SDS011;8527;49.740;6.604;2022-08-25T16:01:01;6.93;;;4.55;;
16820;SDS011;8527;49.740;6.604;2022-08-25T16:06:01;6.00;;;3.95;;
16820;SDS011;8527;49.740;6.604;2022-08-25T16:11:03;8.13;;;4.13;;
16820;SDS011;8527;49.740;6.604;2022-08-25T16:16:05;9.30;;;3.90;;
16820;SDS011;8527;49.740;6.604;2022-08-25T16:21:05;6.53;;;4.13;;
16820;SDS011;8527;49.740;6.604;2022-08-25T16:26:13;6.88;;;4.15;;
16820;SDS011;8527;49.740;6.604;2022-08-25T16:31:16;5.82;;;4.13;;
16820;SDS011;8527;49.740;6.604;2022-08-25T16:36:18;8.15;;;4.18;;
16820;SDS011;8527;49.740;6.604;2022-08-25T16:41:18;6.57;;;3.80;;
16820;SDS011;8527;49.740;6.604;2022-08-25T16:46:29;6.88;;;4.45;;
16820;SDS011;8527;49.740;6.604;2022-08-25T16:51:31;7.57;;;4.45;;
16820;SDS011;8527;49.740;6.604;2022-08-25T16:56:31;7.72;;;4.65;;
16820;SDS011;8527;49.740;6.604;2022-08-25T17:01:39;9.73;;;4.90;;
16820;SDS011;8527;49.740;6.604;2022-08-25T17:06:40;7.60;;;4.28;;
16820;SDS011;8527;49.740;6.604;2022-08-25T17:11:40;12.18;;;4.22;;
16820;SDS011;8527;49.740;6.604;2022-08-25T17:16:44;7.45;;;4.07;;
16820;SDS011;8527;49.740;6.604;2022-08-25T17:21:48;7.07;;;4.55;;
16820;SDS011;8527;49.740;6.604;2022-08-25T17:26:48;7.20;;;4.63;;
16820;SDS011;8527;49.740;6.604;2022-08-25T17:31:49;9.10;;;4.05;;
16820;SDS011;8527;49.740;6.604;2022-08-25T17:36:49;12.00;;;4.25;;
16820;SDS011;8527;49.740;6.604;2022-08-25T17:41:48;6.13;;;4.07;;
16820;SDS011;8527;49.740;6.604;2022-08-25T17:46:54;7.65;;;4.28;;
16820;SDS011;8527;49.740;6.604;2022-08-25T17:52:03;6.05;;;4.35;;
16820;SDS011;8527;49.740;6.604;2022-08-25T17:57:05;6.55;;;4.25;;
16820;SDS011;8527;49.740;6.604;2022-08-25T18:02:12;6.22;;;4.28;;
16820;SDS011;8527;49.740;6.604;2022-08-25T18:07:11;11.80;;;4.60;;
16820;SDS011;8527;49.740;6.604;2022-08-25T18:12:10;8.07;;;4.38;;
16820;SDS011;8527;49.740;6.604;2022-08-25T18:17:20;6.07;;;4.38;;
16820;SDS011;8527;49.740;6.604;2022-08-25T18:22:24;8.95;;;4.28;;
16820;SDS011;8527;49.740;6.604;2022-08-25T18:27:25;5.57;;;4.10;;
16820;SDS011;8527;49.740;6.604;2022-08-25T18:32:30;6.70;;;4.40;;
16820;SDS011;8527;49.740;6.604;2022-08-25T18:37:28;7.57;;;5.30;;
16820;SDS011;8527;49.740;6.604;2022-08-25T18:42:40;8.85;;;4.75;;
16820;SDS011;8527;49.740;6.604;2022-08-25T18:47:44;9.48;;;5.82;;
16820;SDS011;8527;49.740;6.604;2022-08-25T18:52:43;7.57;;;5.38;;
16820;SDS011;8527;49.740;6.604;2022-08-25T18:57:42;6.82;;;5.32;;
16820;SDS011;8527;49.740;6.604;2022-08-25T19:02:46;6.72;;;4.75;;
16820;SDS011;8527;49.740;6.604;2022-08-25T19:07:46;14.98;;;5.97;;
16820;SDS011;8527;49.740;6.604;2022-08-25T19:12:46;10.10;;;5.90;;
16820;SDS011;8527;49.740;6.604;2022-08-25T19:17:47;11.23;;;5.22;;
16820;SDS011;8527;49.740;6.604;2022-08-25T19:22:47;10.52;;;6.13;;
16820;SDS011;8527;49.740;6.604;2022-08-25T19:27:47;8.70;;;5.75;;
16820;SDS011;8527;49.740;6.604;2022-08-25T19:32:51;9.60;;;5.40;;
16820;SDS011;8527;49.740;6.604;2022-08-25T19:37:50;10.57;;;5.40;;
16820;SDS011;8527;49.740;6.604;2022-08-25T19:42:49;9.13;;;5.22;;
16820;SDS011;8527;49.740;6.604;2022-08-25T19:47:51;8.32;;;4.93;;
16820;SDS011;8527;49.740;6.604;2022-08-25T19:52:50;11.10;;;5.47;;
16820;SDS011;8527;49.740;6.604;2022-08-25T19:57:49;8.25;;;5.40;;
16820;SDS011;8527;49.740;6.604;2022-08-25T20:02:51;9.55;;;5.60;;
16820;SDS011;8527;49.740;6.604;2022-08-25T20:07:50;6.93;;;4.85;;
16820;SDS011;8527;49.740;6.604;2022-08-25T20:12:50;9.93;;;5.32;;
16820;SDS011;8527;49.740;6.604;2022-08-25T20:17:51;6.88;;;4.80;;
16820;SDS011;8527;49.740;6.604;2022-08-25T20:22:50;8.02;;;5.30;;
16820;SDS011;8527;49.740;6.604;2022-08-25T20:28:09;9.65;;;5.30;;
16820;SDS011;8527;49.740;6.604;2022-08-25T20:33:10;8.50;;;5.45;;
16820;SDS011;8527;49.740;6.604;2022-08-25T20:38:08;8.20;;;5.28;;
16820;SDS011;8527;49.740;6.604;2022-08-25T20:43:07;7.47;;;5.13;;
16820;SDS011;8527;49.740;6.604;2022-08-25T20:48:05;10.90;;;5.97;;
16820;SDS011;8527;49.740;6.604;2022-08-25T20:53:06;6.72;;;5.00;;
16820;SDS011;8527;49.740;6.604;2022-08-25T20:58:05;9.00;;;5.47;;
16820;SDS011;8527;49.740;6.604;2022-08-25T21:03:03;10.32;;;5.68;;
16820;SDS011;8527;49.740;6.604;2022-08-25T21:08:02;8.10;;;4.90;;
16820;SDS011;8527;49.740;6.604;2022-08-25T21:13:03;7.70;;;5.28;;
16820;SDS011;8527;49.740;6.604;2022-08-25T21:18:02;7.97;;;5.15;;
16820;SDS011;8527;49.740;6.604;2022-08-25T21:23:00;8.90;;;5.35;;
16820;SDS011;8527;49.740;6.604;2022-08-25T21:27:59;7.93;;;5.38;;
16820;SDS011;8527;49.740;6.604;2022-08-25T21:33:00;8.27;;;5.50;;
16820;SDS011;8527;49.740;6.604;2022-08-25T21:37:59;9.35;;;5.10;;
16820;SDS011;8527;49.740;6.604;2022-08-25T21:42:57;7.32;;;5.28;;
16820;SDS011;8527;49.740;6.604;2022-08-25T21:47:56;12.80;;;5.45;;
16820;SDS011;8527;49.740;6.604;2022-08-25T21:52:57;9.50;;;5.65;;
16820;SDS011;8527;49.740;6.604;2022-08-25T21:57:58;6.85;;;5.05;;
16820;SDS011;8527;49.740;6.604;2022-08-25T22:02:57;10.38;;;5.43;;
16820;SDS011;8527;49.740;6.604;2022-08-25T22:07:58;9.23;;;5.22;;
16820;SDS011;8527;49.740;6.604;2022-08-25T22:12:57;11.18;;;5.22;;
16820;SDS011;8527;49.740;6.604;2022-08-25T22:17:55;10.18;;;5.78;;
16820;SDS011;8527;49.740;6.604;2022-08-25T22:22:54;7.88;;;5.05;;
16820;SDS011;8527;49.740;6.604;2022-08-25T22:27:56;8.52;;;5.15;;
16820;SDS011;8527;49.740;6.604;2022-08-25T22:32:58;11.70;;;5.35;;
16820;SDS011;8527;49.740;6.604;2022-08-25T22:37:56;7.25;;;4.85;;
16820;SDS011;8527;49.740;6.604;2022-08-25T22:42:58;10.18;;;5.30;;
16820;SDS011;8527;49.740;6.604;2022-08-25T22:47:56;7.88;;;5.10;;
16820;SDS011;8527;49.740;6.604;2022-08-25T22:52:58;8.57;;;5.25;;
16820;SDS011;8527;49.740;6.604;2022-08-25T22:58:02;10.05;;;5.28;;
16820;SDS011;8527;49.740;6.604;2022-08-25T23:03:06;8.77;;;5.40;;
16820;SDS011;8527;49.740;6.604;2022-08-25T23:08:05;8.30;;;5.65;;
16820;SDS011;8527;49.740;6.604;2022-08-25T23:13:06;11.45;;;5.63;;
16820;SDS011;8527;49.740;6.604;2022-08-25T23:18:04;9.32;;;5.63;;
16820;SDS011;8527;49.740;6.604;2022-08-25T23:23:03;10.93;;;5.60;;
16820;SDS011;8527;49.740;6.604;2022-08-25T23:28:07;10.75;;;5.95;;
16820;SDS011;8527;49.740;6.604;2022-08-25T23:33:05;8.98;;;5.93;;
16820;SDS011;8527;49.740;6.604;2022-08-25T23:38:05;10.52;;;5.70;;
16820;SDS011;8527;49.740;6.604;2022-08-25T23:43:12;8.95;;;5.13;;
16820;SDS011;8527;49.740;6.604;2022-08-25T23:48:10;8.68;;;5.18;;
16820;SDS011;8527;49.740;6.604;2022-08-25T23:53:10;7.28;;;4.95;;
16820;SDS011;8527;49.740;6.604;2022-08-25T23:58:12;10.23;;;6.13;;
